createdAt,value
2024-04-30T00:01:34.044Z,25.98
2024-04-30T00:04:00.924Z,25.46
2024-04-30T00:06:32.863Z,26.60
2024-04-30T00:08:59.490Z,25.27
2024-04-30T00:11:28.753Z,25.93
2024-04-30T00:13:55.448Z,26.23
2024-04-30T00:16:24.749Z,25.95
2024-04-30T00:18:51.392Z,25.53
2024-04-30T00:21:20.622Z,25.33
2024-04-30T00:23:49.866Z,25.12
2024-04-30T00:26:19.099Z,25.45
2024-04-30T00:28:46.947Z,26.18
2024-04-30T00:31:16.201Z,25.85
2024-04-30T00:33:42.837Z,25.64
2024-04-30T00:36:12.102Z,25.43
2024-04-30T00:38:38.728Z,25.98
2024-04-30T00:41:10.504Z,25.53
2024-04-30T00:43:37.355Z,24.91
2024-04-30T00:46:07.169Z,24.79
2024-04-30T00:48:36.441Z,25.60
2024-04-30T00:51:09.361Z,25.54
2024-04-30T00:53:36.105Z,25.55
2024-04-30T00:56:05.609Z,25.58
2024-04-30T00:58:36.157Z,25.78
2024-04-30T01:01:06.625Z,25.37
2024-04-30T01:03:33.638Z,24.84
2024-04-30T01:06:03.014Z,25.96
2024-04-30T01:08:29.678Z,25.29
2024-04-30T01:11:00.191Z,25.32
2024-04-30T01:13:28.802Z,25.25
2024-04-30T01:16:00.700Z,25.06
2024-04-30T01:18:27.381Z,25.50
2024-04-30T01:20:56.638Z,25.69
2024-04-30T01:23:25.897Z,25.95
2024-04-30T01:25:55.246Z,24.53
2024-04-30T01:28:21.965Z,25.06
2024-04-30T01:30:51.396Z,25.03
2024-04-30T01:33:18.616Z,24.80
2024-04-30T01:35:47.812Z,25.23
2024-04-30T01:38:14.621Z,25.81
2024-04-30T01:40:46.437Z,25.41
2024-04-30T01:43:13.114Z,24.99
2024-04-30T01:45:42.368Z,24.57
2024-04-30T01:48:09.077Z,25.29
2024-04-30T01:50:39.181Z,24.85
2024-04-30T01:53:05.831Z,24.06
2024-04-30T01:55:35.093Z,24.71
2024-04-30T01:58:04.738Z,24.33
2024-04-30T02:00:34.085Z,23.01
2024-04-30T02:03:00.734Z,23.52
2024-04-30T02:05:30.045Z,24.41
2024-04-30T02:07:56.768Z,24.34
2024-04-30T02:10:26.061Z,24.71
2024-04-30T02:12:52.700Z,23.55
2024-04-30T02:15:24.511Z,23.80
2024-04-30T02:17:51.585Z,24.52
2024-04-30T02:20:20.803Z,24.25
2024-04-30T02:22:47.456Z,24.35
2024-04-30T02:25:16.768Z,24.78
2024-04-30T02:27:43.487Z,23.47
2024-04-30T02:30:33.471Z,24.70
2024-04-30T02:33:21.212Z,24.33
2024-04-30T02:35:50.500Z,24.19
2024-04-30T02:38:19.705Z,25.05
2024-04-30T02:40:48.928Z,24.89
2024-04-30T02:43:18.201Z,25.09
2024-04-30T02:45:44.857Z,24.71
2024-04-30T02:48:17.559Z,25.21
2024-04-30T02:50:44.219Z,24.20
2024-04-30T02:53:13.475Z,23.78
2024-04-30T02:55:40.160Z,25.07
2024-04-30T02:58:09.382Z,24.27
2024-04-30T03:00:38.608Z,23.81
2024-04-30T03:03:05.506Z,24.07
2024-04-30T03:05:37.341Z,24.42
2024-04-30T03:08:05.374Z,23.92
2024-04-30T03:10:35.028Z,24.14
2024-04-30T03:13:01.847Z,24.18
2024-04-30T03:15:31.086Z,24.08
2024-04-30T03:17:57.919Z,24.29
2024-04-30T03:20:27.530Z,24.84
2024-04-30T03:22:56.764Z,25.29
2024-04-30T03:25:26.007Z,25.29
2024-04-30T03:27:52.719Z,24.61
2024-04-30T03:30:22.144Z,24.69
2024-04-30T03:32:49.065Z,25.80
2024-04-30T03:35:18.946Z,25.10
2024-04-30T03:37:48.203Z,24.72
2024-04-30T03:40:20.041Z,24.73
2024-04-30T03:42:52.284Z,25.21
2024-04-30T03:45:22.982Z,24.75
2024-04-30T03:47:52.235Z,25.91
2024-04-30T03:50:21.473Z,25.66
2024-04-30T03:52:48.098Z,25.49
2024-04-30T03:55:19.962Z,25.45
2024-04-30T03:57:46.582Z,24.86
2024-04-30T04:00:16.402Z,24.49
2024-04-30T04:02:43.163Z,24.82
2024-04-30T04:05:12.427Z,25.82
2024-04-30T04:07:39.096Z,25.73
2024-04-30T04:10:09.160Z,25.69
2024-04-30T04:12:57.039Z,25.37
2024-04-30T04:15:26.232Z,24.50
2024-04-30T04:17:55.521Z,24.84
2024-04-30T04:20:24.759Z,25.84
2024-04-30T04:22:53.983Z,26.25
2024-04-30T04:25:23.190Z,26.39
2024-04-30T04:27:52.464Z,26.93
2024-04-30T04:30:21.638Z,25.70
2024-04-30T04:32:48.391Z,26.71
2024-04-30T04:35:17.927Z,26.14
2024-04-30T04:37:45.834Z,25.96
2024-04-30T04:40:15.207Z,25.71
2024-04-30T04:42:41.855Z,25.33
2024-04-30T04:45:13.657Z,26.22
2024-04-30T04:47:40.386Z,25.71
2024-04-30T04:50:10.740Z,26.50
2024-04-30T04:52:38.585Z,26.91
2024-04-30T04:55:08.336Z,27.98
2024-04-30T04:57:35.016Z,26.96
2024-04-30T05:00:05.551Z,26.89
2024-04-30T05:02:34.802Z,27.39
2024-04-30T05:05:04.108Z,27.10
2024-04-30T05:07:31.055Z,26.55
2024-04-30T05:10:00.425Z,27.17
2024-04-30T05:12:27.076Z,26.43
2024-04-30T05:14:56.394Z,26.85
2024-04-30T05:17:23.174Z,27.76
2024-04-30T05:19:55.049Z,27.80
2024-04-30T05:22:21.776Z,27.16
2024-04-30T05:24:51.094Z,27.39
2024-04-30T05:27:17.784Z,27.91
2024-04-30T05:29:47.085Z,27.81
2024-04-30T05:32:13.748Z,28.04
2024-04-30T05:34:42.993Z,26.13
2024-04-30T05:37:12.362Z,27.68
2024-04-30T05:39:41.595Z,26.77
2024-04-30T05:42:09.170Z,26.93
2024-04-30T05:44:38.392Z,27.73
2024-04-30T05:47:05.156Z,27.90
2024-04-30T05:49:34.717Z,27.88
2024-04-30T05:52:01.656Z,26.51
2024-04-30T05:54:33.441Z,26.89
2024-04-30T05:57:00.132Z,26.96
2024-04-30T05:59:29.796Z,27.63
2024-04-30T06:01:56.520Z,27.65
2024-04-30T06:04:25.934Z,26.63
2024-04-30T06:06:52.621Z,27.25
2024-04-30T06:09:21.842Z,27.38
2024-04-30T06:11:52.859Z,27.56
2024-04-30T06:14:23.962Z,27.89
2024-04-30T06:16:51.855Z,27.35
2024-04-30T06:19:21.105Z,28.30
2024-04-30T06:21:47.965Z,27.83
2024-04-30T06:24:17.230Z,29.07
2024-04-30T06:26:44.287Z,28.96
2024-04-30T06:29:17.102Z,29.10
2024-04-30T06:31:43.844Z,28.78
2024-04-30T06:34:14.432Z,27.93
2024-04-30T06:36:41.105Z,29.27
2024-04-30T06:39:10.348Z,28.31
2024-04-30T06:41:37.005Z,29.17
2024-04-30T06:44:06.253Z,28.89
2024-04-30T06:46:35.591Z,30.20
2024-04-30T06:49:05.821Z,30.20
2024-04-30T06:51:34.582Z,30.02
2024-04-30T06:54:03.822Z,29.22
2024-04-30T06:56:30.465Z,28.25
2024-04-30T06:58:59.648Z,29.11
2024-04-30T07:01:28.967Z,29.33
2024-04-30T07:03:58.225Z,29.35
2024-04-30T07:06:27.457Z,29.76
2024-04-30T07:08:54.080Z,28.53
2024-04-30T07:11:23.536Z,28.96
2024-04-30T07:13:50.212Z,30.17
2024-04-30T07:16:19.551Z,29.32
2024-04-30T07:18:46.789Z,30.28
2024-04-30T07:21:18.690Z,29.60
2024-04-30T07:23:45.358Z,29.86
2024-04-30T07:26:16.693Z,30.20
2024-04-30T07:28:44.954Z,30.23
2024-04-30T07:31:14.176Z,31.13
2024-04-30T07:33:42.777Z,30.34
2024-04-30T07:36:12.134Z,31.29
2024-04-30T07:38:41.367Z,30.69
2024-04-30T07:41:10.850Z,30.88
2024-04-30T07:43:37.751Z,30.44
2024-04-30T07:46:07.539Z,30.67
2024-04-30T07:48:34.316Z,31.72
2024-04-30T07:51:03.666Z,31.73
2024-04-30T07:53:30.325Z,32.58
2024-04-30T07:56:02.136Z,32.84
2024-04-30T07:58:28.894Z,32.01
2024-04-30T08:00:58.136Z,31.68
2024-04-30T08:03:24.800Z,33.10
2024-04-30T08:05:56.329Z,32.66
2024-04-30T08:08:24.981Z,32.14
2024-04-30T08:10:54.882Z,31.56
2024-04-30T08:13:24.147Z,31.81
2024-04-30T08:15:53.376Z,31.68
2024-04-30T08:18:20.060Z,32.80
2024-04-30T08:20:49.297Z,32.94
2024-04-30T08:23:15.953Z,33.05
2024-04-30T08:25:45.218Z,33.28
2024-04-30T08:28:11.956Z,33.47
2024-04-30T08:30:44.387Z,33.58
2024-04-30T08:33:11.598Z,33.44
2024-04-30T08:35:42.304Z,33.29
2024-04-30T08:38:09.207Z,32.29
2024-04-30T08:40:38.806Z,32.14
2024-04-30T08:43:05.671Z,32.91
2024-04-30T08:45:36.985Z,32.86
2024-04-30T08:48:07.846Z,32.29
2024-04-30T08:50:41.377Z,32.43
2024-04-30T08:53:09.971Z,33.35
2024-04-30T08:55:40.436Z,32.69
2024-04-30T08:58:07.231Z,33.11
2024-04-30T09:00:37.387Z,32.37
2024-04-30T09:03:07.463Z,32.61
2024-04-30T09:05:37.097Z,33.47
2024-04-30T09:08:04.841Z,32.66
2024-04-30T09:10:35.989Z,33.08
2024-04-30T09:13:05.342Z,33.25
2024-04-30T09:15:32.018Z,33.97
2024-04-30T09:18:11.266Z,33.81
2024-04-30T09:20:44.458Z,34.40
2024-04-30T09:23:13.661Z,34.62
2024-04-30T09:25:43.011Z,34.83
2024-04-30T09:28:13.446Z,33.89
2024-04-30T09:30:42.716Z,33.86
2024-04-30T09:33:12.443Z,33.95
2024-04-30T09:35:42.175Z,33.70
2024-04-30T09:38:11.602Z,34.41
2024-04-30T09:40:41.002Z,33.57
2024-04-30T09:43:08.122Z,34.31
2024-04-30T09:45:37.422Z,33.24
2024-04-30T09:48:09.499Z,33.81
2024-04-30T09:50:43.520Z,34.11
2024-04-30T09:53:11.929Z,34.67
2024-04-30T09:55:41.167Z,35.19
2024-04-30T09:58:10.284Z,33.33
2024-04-30T10:00:39.493Z,33.86
2024-04-30T10:03:09.346Z,34.18
2024-04-30T10:05:45.870Z,34.52
2024-04-30T10:08:15.259Z,34.44
2024-04-30T10:10:45.845Z,34.54
2024-04-30T10:13:19.318Z,35.12
2024-04-30T10:15:46.049Z,35.16
2024-04-30T10:18:23.928Z,35.82
2024-04-30T10:20:53.451Z,35.37
2024-04-30T10:23:30.371Z,35.27
2024-04-30T10:26:04.400Z,35.56
2024-04-30T10:28:33.845Z,35.63
2024-04-30T10:31:10.941Z,35.63
2024-04-30T10:33:40.949Z,35.89
2024-04-30T10:36:12.260Z,35.41
2024-04-30T10:38:42.957Z,35.19
2024-04-30T10:41:10.592Z,34.71
2024-04-30T10:43:40.078Z,35.78
2024-04-30T10:46:12.495Z,35.31
2024-04-30T10:48:49.603Z,35.40
2024-04-30T10:51:20.872Z,36.30
2024-04-30T10:53:51.725Z,36.70
2024-04-30T10:56:18.938Z,36.92
2024-04-30T10:58:55.365Z,36.64
2024-04-30T11:01:23.272Z,36.58
2024-04-30T11:03:53.362Z,36.52
2024-04-30T11:06:25.204Z,35.29
2024-04-30T11:08:51.915Z,36.09
2024-04-30T11:11:43.137Z,36.43
2024-04-30T11:14:09.809Z,36.58
2024-04-30T11:16:39.711Z,36.37
2024-04-30T11:19:06.449Z,36.81
2024-04-30T11:21:38.337Z,36.38
2024-04-30T11:24:06.148Z,37.22
2024-04-30T11:26:35.364Z,36.12
2024-04-30T11:29:15.924Z,36.78
2024-04-30T11:31:51.415Z,36.38
2024-04-30T11:34:18.106Z,36.57
2024-04-30T11:36:50.036Z,35.25
2024-04-30T11:39:16.882Z,35.75
2024-04-30T11:41:51.923Z,36.50
2024-04-30T11:44:23.881Z,36.78
2024-04-30T11:46:53.113Z,37.39
2024-04-30T11:49:19.869Z,37.39
2024-04-30T11:51:51.697Z,37.21
2024-04-30T11:54:18.362Z,36.41
2024-04-30T11:56:47.616Z,37.12
2024-04-30T11:59:14.300Z,37.01
2024-04-30T12:01:43.740Z,37.55
2024-04-30T12:04:10.446Z,37.18
2024-04-30T12:06:40.128Z,36.98
2024-04-30T12:09:09.408Z,37.41
2024-04-30T12:11:41.065Z,37.67
2024-04-30T12:14:07.725Z,37.16
2024-04-30T12:16:37.000Z,36.70
2024-04-30T12:19:05.117Z,36.41
2024-04-30T12:21:34.410Z,37.11
2024-04-30T12:24:01.121Z,37.54
2024-04-30T12:26:37.565Z,37.14
2024-04-30T12:29:04.374Z,37.46
2024-04-30T12:31:34.278Z,37.01
2024-04-30T12:34:00.963Z,36.93
2024-04-30T12:36:32.578Z,36.85
2024-04-30T12:39:02.000Z,37.34
2024-04-30T12:41:37.150Z,36.54
2024-04-30T12:44:06.568Z,37.37
2024-04-30T12:46:33.407Z,36.78
2024-04-30T12:49:02.946Z,36.84
2024-04-30T12:51:29.706Z,36.72
2024-04-30T12:53:59.607Z,36.54
2024-04-30T12:56:26.323Z,36.95
2024-04-30T12:58:58.173Z,36.66
2024-04-30T13:01:26.333Z,36.79
2024-04-30T13:03:55.930Z,36.80
2024-04-30T13:06:22.629Z,37.37
2024-04-30T13:08:52.051Z,36.74
2024-04-30T13:11:18.761Z,36.77
2024-04-30T13:13:48.019Z,36.93
2024-04-30T13:16:17.287Z,37.00
2024-04-30T13:18:46.628Z,37.26
2024-04-30T13:21:14.848Z,37.31
2024-04-30T13:23:44.253Z,36.79
2024-04-30T13:26:11.050Z,37.01
2024-04-30T13:28:40.323Z,36.90
2024-04-30T13:31:07.165Z,37.09
2024-04-30T13:33:39.787Z,36.73
2024-04-30T13:36:09.966Z,36.49
2024-04-30T13:38:39.181Z,36.46
2024-04-30T13:41:05.864Z,36.28
2024-04-30T13:43:39.389Z,36.53
2024-04-30T13:46:06.286Z,36.73
2024-04-30T13:48:35.618Z,36.38
2024-04-30T13:51:05.457Z,36.87
2024-04-30T13:53:34.771Z,36.39
2024-04-30T13:56:01.408Z,36.70
2024-04-30T13:58:30.740Z,36.61
2024-04-30T14:00:57.483Z,36.64
2024-04-30T14:03:26.786Z,36.68
2024-04-30T14:05:55.151Z,36.62
2024-04-30T14:08:27.658Z,36.75
2024-04-30T14:10:54.508Z,37.04
2024-04-30T14:13:23.850Z,36.91
2024-04-30T14:15:50.572Z,37.32
2024-04-30T14:18:19.811Z,37.55
2024-04-30T14:20:46.724Z,37.25
2024-04-30T14:23:15.960Z,36.73
2024-04-30T14:25:45.291Z,36.30
2024-04-30T14:28:14.650Z,36.42
2024-04-30T14:30:41.529Z,36.85
2024-04-30T14:33:10.837Z,36.40
2024-04-30T14:35:52.507Z,36.95
2024-04-30T14:38:21.796Z,37.11
2024-04-30T14:40:51.404Z,36.99
2024-04-30T14:43:20.691Z,37.21
2024-04-30T14:45:47.335Z,37.32
2024-04-30T14:48:17.187Z,36.99
2024-04-30T14:50:43.969Z,36.61
2024-04-30T14:53:13.170Z,37.09
2024-04-30T14:55:40.131Z,37.00
2024-04-30T14:58:11.990Z,37.58
2024-04-30T15:00:38.661Z,37.25
2024-04-30T15:03:08.441Z,37.31
2024-04-30T15:05:35.173Z,37.22
2024-04-30T15:08:04.414Z,36.96
2024-04-30T15:10:31.462Z,36.96
2024-04-30T15:13:00.838Z,36.18
2024-04-30T15:15:30.076Z,37.02
2024-04-30T15:17:59.445Z,36.56
2024-04-30T15:20:26.153Z,36.96
2024-04-30T15:22:55.771Z,37.47
2024-04-30T15:25:25.115Z,37.79
2024-04-30T15:27:51.845Z,37.39
2024-04-30T15:30:21.173Z,37.59
2024-04-30T15:32:51.703Z,37.99
2024-04-30T15:35:22.361Z,36.72
2024-04-30T15:37:49.093Z,37.31
2024-04-30T15:40:18.506Z,37.77
2024-04-30T15:42:45.267Z,38.00
2024-04-30T15:45:14.637Z,38.27
2024-04-30T15:47:42.848Z,37.49
2024-04-30T15:50:14.744Z,37.71
2024-04-30T15:52:41.516Z,36.87
2024-04-30T15:55:10.834Z,37.14
2024-04-30T15:57:37.749Z,37.14
2024-04-30T16:00:07.898Z,37.23
2024-04-30T16:02:34.919Z,36.92
2024-04-30T16:05:04.326Z,37.08
2024-04-30T16:07:34.063Z,35.95
2024-04-30T16:10:03.267Z,36.91
2024-04-30T16:12:30.424Z,37.04
2024-04-30T16:14:59.633Z,37.35
2024-04-30T16:17:26.630Z,37.08
2024-04-30T16:19:56.046Z,37.09
2024-04-30T16:22:22.949Z,37.30
2024-04-30T16:24:55.665Z,38.09
2024-04-30T16:27:22.528Z,37.63
2024-04-30T16:29:51.721Z,37.79
2024-04-30T16:32:18.857Z,37.22
2024-04-30T16:34:48.189Z,37.23
2024-04-30T16:37:14.836Z,37.00
2024-04-30T16:39:44.060Z,37.31
2024-04-30T16:42:15.881Z,37.23
2024-04-30T16:44:48.611Z,37.26
2024-04-30T16:47:19.540Z,37.14
2024-04-30T16:49:48.821Z,37.34
2024-04-30T16:52:15.445Z,37.74
2024-04-30T16:54:44.706Z,37.13
2024-04-30T16:57:14.028Z,36.72
2024-04-30T16:59:43.249Z,37.28
2024-04-30T17:02:12.136Z,37.00
2024-04-30T17:04:41.844Z,36.98
2024-04-30T17:07:08.513Z,37.30
2024-04-30T17:09:37.749Z,37.11
2024-04-30T17:12:07.720Z,37.59
2024-04-30T17:14:37.218Z,37.11
2024-04-30T17:17:07.334Z,37.25
2024-04-30T17:19:34.099Z,37.72
2024-04-30T17:22:03.380Z,36.99
2024-04-30T17:24:30.050Z,37.40
2024-04-30T17:26:59.690Z,37.02
2024-04-30T17:29:26.327Z,37.11
2024-04-30T17:31:58.433Z,36.94
2024-04-30T17:34:25.127Z,36.65
2024-04-30T17:36:54.408Z,36.43
2024-04-30T17:39:21.248Z,36.89
2024-04-30T17:41:50.593Z,36.90
2024-04-30T17:44:17.302Z,36.82
2024-04-30T17:46:46.533Z,37.17
2024-04-30T17:49:15.871Z,37.33
2024-04-30T17:51:45.629Z,37.25
2024-04-30T17:54:14.634Z,37.42
2024-04-30T17:56:43.824Z,37.50
2024-04-30T17:59:10.860Z,37.48
2024-04-30T18:01:40.220Z,37.35
2024-04-30T18:04:06.970Z,37.37
2024-04-30T18:06:38.828Z,37.19
2024-04-30T18:09:06.773Z,36.72
2024-04-30T18:11:36.673Z,36.46
2024-04-30T18:14:03.638Z,35.46
2024-04-30T18:16:33.140Z,35.10
2024-04-30T18:18:59.934Z,36.34
2024-04-30T18:21:35.111Z,36.50
2024-04-30T18:24:07.140Z,36.49
2024-04-30T18:26:41.526Z,36.86
2024-04-30T18:29:08.761Z,36.34
2024-04-30T18:31:38.321Z,36.55
2024-04-30T18:34:05.097Z,36.12
2024-04-30T18:36:39.572Z,36.59
2024-04-30T18:39:13.763Z,36.40
2024-04-30T18:41:43.140Z,36.57
2024-04-30T18:44:10.059Z,35.98
2024-04-30T18:46:39.317Z,36.25
2024-04-30T18:49:06.100Z,36.21
2024-04-30T18:51:41.750Z,35.89
2024-04-30T18:54:13.911Z,36.07
2024-04-30T18:56:40.534Z,35.83
2024-04-30T18:59:09.838Z,35.71
2024-04-30T19:01:36.852Z,35.63
2024-04-30T19:04:06.623Z,36.08
2024-04-30T19:06:33.401Z,36.17
2024-04-30T19:09:02.768Z,36.35
2024-04-30T19:11:34.614Z,36.13
2024-04-30T19:14:01.308Z,35.11
2024-04-30T19:16:30.562Z,36.10
2024-04-30T19:18:58.052Z,35.98
2024-04-30T19:21:27.320Z,35.64
2024-04-30T19:23:53.962Z,35.73
2024-04-30T19:26:23.130Z,35.84
2024-04-30T19:28:52.444Z,35.41
2024-04-30T19:31:23.208Z,34.94
2024-04-30T19:33:50.135Z,35.54
2024-04-30T19:36:20.847Z,35.29
2024-04-30T19:38:48.313Z,35.46
2024-04-30T19:41:18.154Z,35.58
2024-04-30T19:43:45.070Z,35.37
2024-04-30T19:46:20.925Z,35.27
2024-04-30T19:48:48.043Z,35.30
2024-04-30T19:51:20.998Z,35.33
2024-04-30T19:53:49.580Z,36.10
2024-04-30T19:56:20.312Z,36.03
2024-04-30T19:58:51.664Z,35.95
2024-04-30T20:01:28.950Z,35.81
2024-04-30T20:03:57.685Z,35.71
2024-04-30T20:06:27.551Z,34.25
2024-04-30T20:08:54.332Z,35.00
2024-04-30T20:11:26.018Z,35.54
2024-04-30T20:13:53.571Z,35.42
2024-04-30T20:16:26.977Z,35.37
2024-04-30T20:18:54.092Z,35.39
2024-04-30T20:21:25.393Z,35.18
2024-04-30T20:23:52.273Z,35.01
2024-04-30T20:26:21.488Z,35.17
2024-04-30T20:28:48.513Z,34.56
2024-04-30T20:31:17.985Z,33.94
2024-04-30T20:33:47.297Z,34.88
2024-04-30T20:36:19.856Z,34.92
2024-04-30T20:38:46.794Z,34.14
2024-04-30T20:41:17.123Z,34.64
2024-04-30T20:43:43.905Z,34.87
2024-04-30T20:46:13.204Z,33.96
2024-04-30T20:48:39.991Z,34.75
2024-04-30T20:51:11.884Z,34.28
2024-04-30T20:53:40.245Z,34.63
2024-04-30T20:56:10.406Z,34.75
2024-04-30T20:58:37.036Z,34.70
2024-04-30T21:01:06.548Z,35.06
2024-04-30T21:03:33.334Z,34.37
2024-04-30T21:06:03.142Z,33.91
2024-04-30T21:08:32.419Z,34.73
2024-04-30T21:11:01.782Z,34.45
2024-04-30T21:13:28.465Z,34.22
2024-04-30T21:15:57.840Z,34.13
2024-04-30T21:18:24.727Z,34.03
2024-04-30T21:20:53.999Z,33.95
2024-04-30T21:23:21.540Z,34.15
2024-04-30T21:25:53.346Z,34.09
2024-04-30T21:28:20.008Z,34.25
2024-04-30T21:30:51.639Z,34.02
2024-04-30T21:33:18.850Z,33.82
2024-04-30T21:35:48.626Z,34.34
2024-04-30T21:38:16.598Z,33.84
2024-04-30T21:40:45.966Z,34.29
2024-04-30T21:43:15.231Z,34.28
2024-04-30T21:45:44.503Z,34.20
2024-04-30T21:48:11.384Z,34.13
2024-04-30T21:50:40.634Z,34.13
2024-04-30T21:53:07.412Z,34.24
2024-04-30T21:55:36.659Z,34.50
2024-04-30T21:58:03.538Z,33.85
2024-04-30T22:00:35.637Z,33.85
2024-04-30T22:03:03.551Z,33.65
2024-04-30T22:05:33.924Z,33.98
2024-04-30T22:08:00.693Z,33.74
2024-04-30T22:10:29.897Z,33.49
2024-04-30T22:12:56.780Z,33.01
2024-04-30T22:15:26.162Z,33.44
2024-04-30T22:17:55.494Z,33.78
2024-04-30T22:20:24.805Z,33.64
2024-04-30T22:22:51.494Z,33.97
2024-04-30T22:25:20.738Z,33.53
2024-04-30T22:27:47.419Z,33.80
2024-04-30T22:30:20.065Z,33.73
2024-04-30T22:32:47.378Z,33.37
2024-04-30T22:35:19.394Z,33.71
2024-04-30T22:37:46.027Z,33.72
2024-04-30T22:40:15.414Z,33.62
2024-04-30T22:42:42.227Z,33.59
2024-04-30T22:45:11.507Z,33.30
2024-04-30T22:47:38.334Z,33.83
2024-04-30T22:50:07.865Z,33.67
2024-04-30T22:52:37.103Z,33.01
2024-04-30T22:55:06.896Z,33.73
2024-04-30T22:57:36.235Z,33.89
2024-04-30T23:00:03.963Z,33.78
2024-04-30T23:02:33.224Z,33.66
2024-04-30T23:05:00.212Z,33.72
2024-04-30T23:07:29.503Z,33.76
2024-04-30T23:09:58.711Z,33.75
2024-04-30T23:12:28.097Z,33.53
2024-04-30T23:14:54.948Z,33.33
2024-04-30T23:17:24.245Z,32.50
2024-04-30T23:19:50.956Z,33.16
2024-04-30T23:22:23.402Z,33.07
2024-04-30T23:24:50.077Z,33.08
2024-04-30T23:27:22.222Z,32.83
2024-04-30T23:29:48.954Z,33.24
2024-04-30T23:32:18.351Z,33.02
2024-04-30T23:34:44.977Z,32.89
2024-04-30T23:37:14.202Z,32.60
2024-04-30T23:39:40.923Z,32.58
2024-04-30T23:42:13.761Z,32.60
2024-04-30T23:44:46.221Z,32.72
2024-04-30T23:47:15.448Z,32.88
2024-04-30T23:49:42.233Z,32.33
2024-04-30T23:52:11.491Z,32.77
2024-04-30T23:54:38.322Z,32.93
2024-04-30T23:57:08.210Z,32.90
2024-04-30T23:59:34.897Z,32.58
